createdAt,value
2017-08-11T00:01:53.819Z,10.07
2017-08-11T00:04:21.411Z,10.70
2017-08-11T00:06:49.032Z,10.40
2017-08-11T00:09:16.621Z,10.37
2017-08-11T00:11:44.256Z,10.77
2017-08-11T00:14:11.851Z,10.90
2017-08-11T00:16:39.949Z,11.40
2017-08-11T00:19:07.559Z,11.50
2017-08-11T00:21:35.154Z,11.90
2017-08-11T00:24:02.792Z,10.70
2017-08-11T00:26:30.395Z,10.37
2017-08-11T00:28:58.373Z,12.63
2017-08-11T00:31:25.957Z,12.03
2017-08-11T00:33:53.674Z,10.90
2017-08-11T00:36:21.284Z,12.10
2017-08-11T00:38:48.867Z,12.53
2017-08-11T00:41:16.509Z,11.67
2017-08-11T00:43:44.096Z,11.87
2017-08-11T00:46:11.708Z,12.27
2017-08-11T00:48:39.324Z,12.53
2017-08-11T00:51:06.949Z,12.90
2017-08-11T00:53:34.535Z,12.47
2017-08-11T00:56:02.530Z,13.40
2017-08-11T00:58:30.141Z,13.57
2017-08-11T01:00:57.806Z,12.90
2017-08-11T01:03:25.467Z,13.63
2017-08-11T01:05:53.127Z,12.87
2017-08-11T01:08:20.734Z,12.30
2017-08-11T01:10:48.358Z,12.13
2017-08-11T01:13:15.997Z,13.43
2017-08-11T01:15:43.648Z,13.30
2017-08-11T01:18:11.685Z,12.40
2017-08-11T01:20:39.811Z,13.17
2017-08-11T01:23:07.425Z,12.97
2017-08-11T01:25:35.029Z,13.90
2017-08-11T01:28:02.645Z,13.53
2017-08-11T01:30:30.311Z,12.83
2017-08-11T01:32:59.420Z,12.97
2017-08-11T01:35:27.389Z,13.07
2017-08-11T01:37:54.956Z,12.53
2017-08-11T01:40:22.554Z,13.33
2017-08-11T01:42:50.175Z,13.40
2017-08-11T01:45:17.840Z,13.60
2017-08-11T01:47:45.456Z,13.40
2017-08-11T01:50:13.057Z,13.10
2017-08-11T01:52:40.739Z,13.83
2017-08-11T01:55:08.459Z,13.33
2017-08-11T01:57:36.447Z,14.17
2017-08-11T02:00:04.058Z,12.13
2017-08-11T02:02:31.674Z,12.47
2017-08-11T02:04:59.281Z,11.70
2017-08-11T02:07:26.886Z,11.37
2017-08-11T02:09:54.503Z,10.40
2017-08-11T02:12:22.078Z,9.77
2017-08-11T02:14:49.986Z,9.80
2017-08-11T02:17:17.574Z,10.00
2017-08-11T02:19:45.175Z,9.20
2017-08-11T02:22:12.790Z,8.40
2017-08-11T02:24:40.379Z,8.50
2017-08-11T02:27:07.991Z,8.73
2017-08-11T02:29:35.580Z,8.70
2017-08-11T02:32:03.201Z,7.43
2017-08-11T02:34:30.920Z,8.90
2017-08-11T02:36:58.525Z,8.80
2017-08-11T02:39:26.134Z,8.50
2017-08-11T02:41:54.074Z,8.53
2017-08-11T02:44:21.667Z,8.97
2017-08-11T02:46:49.251Z,8.33
2017-08-11T02:49:16.858Z,8.60
2017-08-11T02:51:44.451Z,7.80
2017-08-11T02:54:12.102Z,8.20
2017-08-11T02:56:39.704Z,7.90
2017-08-11T02:59:07.691Z,8.10
2017-08-11T03:01:35.275Z,8.17
2017-08-11T03:04:02.847Z,8.20
2017-08-11T03:06:30.449Z,8.60
2017-08-11T03:08:58.042Z,7.90
2017-08-11T03:11:25.755Z,8.03
2017-08-11T03:13:54.731Z,8.20
2017-08-11T03:16:22.350Z,9.33
2017-08-11T03:18:49.920Z,9.10
2017-08-11T03:21:17.505Z,8.30
2017-08-11T03:23:45.246Z,8.57
2017-08-11T03:26:12.855Z,8.50
2017-08-11T03:28:40.885Z,8.93
2017-08-11T03:31:09.304Z,9.10
2017-08-11T03:33:36.878Z,8.83
2017-08-11T03:36:04.485Z,9.30
2017-08-11T03:38:32.163Z,8.50
2017-08-11T03:41:00.071Z,9.30
2017-08-11T03:43:27.670Z,9.20
2017-08-11T03:45:55.245Z,9.13
2017-08-11T03:48:22.871Z,9.40
2017-08-11T03:50:50.668Z,8.60
2017-08-11T03:53:18.469Z,8.50
2017-08-11T03:55:46.107Z,8.00
2017-08-11T03:58:13.807Z,7.90
2017-08-11T04:00:41.394Z,8.30
2017-08-11T04:03:10.285Z,7.17
2017-08-11T04:05:37.993Z,7.03
2017-08-11T04:08:05.584Z,7.13
2017-08-11T04:10:33.498Z,7.17
2017-08-11T04:13:01.113Z,6.73
2017-08-11T04:15:28.692Z,6.90
2017-08-11T04:17:56.308Z,7.00
2017-08-11T04:20:23.899Z,6.80
2017-08-11T04:22:51.528Z,6.57
2017-08-11T04:25:19.087Z,6.40
2017-08-11T04:27:47.036Z,6.43
2017-08-11T04:30:14.629Z,7.03
2017-08-11T04:32:42.340Z,7.07
2017-08-11T04:35:09.953Z,7.73
2017-08-11T04:37:37.660Z,7.03
2017-08-11T04:40:05.330Z,6.97
2017-08-11T04:42:33.008Z,8.03
2017-08-11T04:45:00.582Z,7.80
2017-08-11T04:47:28.195Z,7.63
2017-08-11T04:49:56.190Z,7.83
2017-08-11T04:52:23.792Z,8.10
2017-08-11T04:54:51.368Z,8.30
2017-08-11T04:57:19.188Z,7.47
2017-08-11T04:59:46.757Z,7.40
2017-08-11T05:02:14.384Z,8.17
2017-08-11T05:04:41.980Z,8.00
2017-08-11T05:07:09.616Z,8.87
2017-08-11T05:09:37.253Z,9.00
2017-08-11T05:12:04.867Z,9.00
2017-08-11T05:14:32.452Z,8.90
2017-08-11T05:17:00.061Z,9.00
2017-08-11T05:19:29.372Z,9.90
2017-08-11T05:21:57.921Z,9.57
2017-08-11T05:24:25.525Z,8.83
2017-08-11T05:26:53.130Z,10.00
2017-08-11T05:29:20.724Z,10.10
2017-08-11T05:31:48.706Z,10.80
2017-08-11T05:34:16.304Z,11.40
2017-08-11T05:36:44.327Z,10.53
2017-08-11T05:39:11.972Z,10.20
2017-08-11T05:41:39.585Z,10.87
2017-08-11T05:44:07.203Z,9.33
2017-08-11T05:46:34.819Z,10.83
2017-08-11T05:49:02.449Z,10.20
2017-08-11T05:51:30.139Z,10.60
2017-08-11T05:53:58.293Z,10.33
2017-08-11T05:56:25.897Z,10.30
2017-08-11T05:58:53.490Z,10.47
2017-08-11T06:01:21.114Z,9.90
2017-08-11T06:03:48.724Z,10.10
2017-08-11T06:06:16.345Z,10.10
2017-08-11T06:08:43.934Z,9.60
2017-08-11T06:11:11.533Z,9.73
2017-08-11T06:13:39.148Z,10.77
2017-08-11T06:16:06.940Z,10.53
2017-08-11T06:18:34.539Z,10.50
2017-08-11T06:21:02.457Z,10.10
2017-08-11T06:23:30.051Z,9.70
2017-08-11T06:25:57.758Z,9.93
2017-08-11T06:28:25.374Z,10.10
2017-08-11T06:30:52.977Z,10.63
2017-08-11T06:33:20.690Z,11.00
2017-08-11T06:35:48.288Z,10.63
2017-08-11T06:38:16.024Z,9.47
2017-08-11T06:40:43.764Z,10.20
2017-08-11T06:43:11.783Z,9.93
2017-08-11T06:45:39.519Z,10.63
2017-08-11T06:48:07.228Z,11.10
2017-08-11T06:50:34.852Z,9.17
2017-08-11T06:53:02.442Z,10.57
2017-08-11T06:55:30.103Z,9.67
2017-08-11T06:57:57.711Z,10.37
2017-08-11T07:00:25.340Z,10.60
2017-08-11T07:02:52.942Z,11.23
2017-08-11T07:05:20.558Z,11.03
2017-08-11T07:07:48.168Z,11.37
2017-08-11T07:10:16.401Z,12.03
2017-08-11T07:12:44.011Z,11.60
2017-08-11T07:15:11.644Z,10.97
2017-08-11T07:17:39.244Z,11.90
2017-08-11T07:20:06.840Z,11.13
2017-08-11T07:22:34.468Z,11.03
2017-08-11T07:25:02.329Z,12.90
2017-08-11T07:27:30.018Z,11.67
2017-08-11T07:29:57.724Z,13.10
2017-08-11T07:32:25.461Z,11.93
2017-08-11T07:34:53.064Z,13.10
2017-08-11T07:37:20.676Z,13.07
2017-08-11T07:39:48.302Z,12.20
2017-08-11T07:42:16.244Z,13.30
2017-08-11T07:44:43.992Z,13.43
2017-08-11T07:47:11.644Z,12.83
2017-08-11T07:49:39.245Z,13.00
2017-08-11T07:52:06.855Z,12.00
2017-08-11T07:54:34.482Z,13.70
2017-08-11T07:57:02.068Z,12.97
2017-08-11T07:59:29.713Z,14.20
2017-08-11T08:01:57.306Z,14.20
2017-08-11T08:04:25.304Z,13.87
2017-08-11T08:06:52.910Z,13.07
2017-08-11T08:09:20.666Z,14.10
2017-08-11T08:11:48.297Z,14.27
2017-08-11T08:14:15.925Z,14.03
2017-08-11T08:16:43.558Z,13.40
2017-08-11T08:19:11.206Z,13.47
2017-08-11T08:21:38.962Z,14.70
2017-08-11T08:24:06.585Z,15.03
2017-08-11T08:26:34.195Z,15.10
2017-08-11T08:29:01.840Z,14.20
2017-08-11T08:31:29.504Z,14.93
2017-08-11T08:33:57.119Z,13.73
2017-08-11T08:36:25.776Z,14.63
2017-08-11T08:38:53.387Z,15.10
2017-08-11T08:41:20.992Z,14.17
2017-08-11T08:43:49.103Z,15.40
2017-08-11T08:46:16.678Z,15.47
2017-08-11T08:48:44.331Z,15.87
2017-08-11T08:51:12.035Z,16.00
2017-08-11T08:53:39.701Z,14.53
2017-08-11T08:56:07.314Z,14.60
2017-08-11T08:58:35.074Z,15.13
2017-08-11T09:01:02.705Z,14.80
2017-08-11T09:03:30.308Z,14.27
2017-08-11T09:05:58.140Z,13.40
2017-08-11T09:08:25.818Z,14.27
2017-08-11T09:10:53.552Z,15.63
2017-08-11T09:13:21.316Z,16.07
2017-08-11T09:15:48.936Z,15.07
2017-08-11T09:18:16.582Z,16.87
2017-08-11T09:20:44.194Z,15.70
2017-08-11T09:23:11.873Z,16.20
2017-08-11T09:25:51.415Z,15.03
2017-08-11T09:28:44.663Z,15.07
2017-08-11T09:31:24.013Z,15.37
2017-08-11T09:34:03.485Z,16.20
2017-08-11T09:36:36.499Z,15.37
2017-08-11T09:39:04.104Z,17.07
2017-08-11T09:41:31.712Z,14.77
2017-08-11T09:43:59.351Z,16.50
2017-08-11T09:46:27.004Z,16.60
2017-08-11T09:48:54.701Z,18.50
2017-08-11T09:51:22.294Z,27.20
2017-08-11T09:53:49.941Z,22.37
2017-08-11T09:56:17.588Z,18.23
2017-08-11T09:58:45.562Z,17.60
2017-08-11T10:01:13.163Z,16.00
2017-08-11T10:03:40.746Z,16.20
2017-08-11T10:06:08.432Z,15.27
2017-08-11T10:08:36.203Z,15.50
2017-08-11T10:11:03.911Z,15.10
2017-08-11T10:13:31.527Z,14.97
2017-08-11T10:15:59.254Z,14.90
2017-08-11T10:18:27.004Z,15.10
2017-08-11T10:20:54.929Z,15.27
2017-08-11T10:23:22.532Z,15.40
2017-08-11T10:25:50.291Z,15.20
2017-08-11T10:28:17.902Z,16.30
2017-08-11T10:30:45.498Z,16.90
2017-08-11T10:33:13.164Z,15.80
2017-08-11T10:35:40.803Z,16.50
2017-08-11T10:38:08.410Z,15.90
2017-08-11T10:40:36.188Z,19.03
2017-08-11T10:43:03.817Z,16.30
2017-08-11T10:45:31.496Z,16.83
2017-08-11T10:47:59.541Z,17.67
2017-08-11T10:50:33.923Z,17.40
2017-08-11T10:53:01.773Z,17.70
2017-08-11T10:55:29.459Z,18.53
2017-08-11T10:57:57.110Z,17.67
2017-08-11T11:00:24.754Z,17.53
2017-08-11T11:02:52.386Z,17.10
2017-08-11T11:05:20.017Z,18.03
2017-08-11T11:07:47.864Z,17.40
2017-08-11T11:10:15.792Z,18.50
2017-08-11T11:12:43.377Z,17.13
2017-08-11T11:15:11.396Z,17.57
2017-08-11T11:17:38.980Z,17.63
2017-08-11T11:20:06.584Z,18.70
2017-08-11T11:22:34.340Z,18.30
2017-08-11T11:25:01.940Z,18.20
2017-08-11T11:27:29.584Z,18.13
2017-08-11T11:29:58.658Z,18.70
2017-08-11T11:32:26.319Z,18.07
2017-08-11T11:34:53.975Z,18.10
2017-08-11T11:37:21.672Z,20.00
2017-08-11T11:39:49.393Z,19.67
2017-08-11T11:42:17.169Z,19.70
2017-08-11T11:44:45.200Z,18.53
2017-08-11T11:47:12.903Z,20.63
2017-08-11T11:49:40.652Z,19.97
2017-08-11T11:52:08.394Z,19.67
2017-08-11T11:54:35.990Z,21.10
2017-08-11T11:57:03.610Z,20.63
2017-08-11T11:59:31.213Z,22.57
2017-08-11T12:01:58.833Z,22.37
2017-08-11T12:04:26.422Z,20.73
2017-08-11T12:06:54.177Z,20.40
2017-08-11T12:09:21.784Z,20.33
2017-08-11T12:11:49.478Z,19.60
2017-08-11T12:14:17.101Z,22.10
2017-08-11T12:16:44.755Z,22.40
2017-08-11T12:19:12.503Z,20.57
2017-08-11T12:21:40.126Z,20.17
2017-08-11T12:24:07.714Z,19.07
2017-08-11T12:26:35.354Z,21.63
2017-08-11T12:29:03.017Z,20.70
2017-08-11T12:31:30.623Z,20.40
2017-08-11T12:33:58.303Z,19.90
2017-08-11T12:36:25.918Z,19.13
2017-08-11T12:38:53.815Z,18.70
2017-08-11T12:41:21.459Z,18.50
2017-08-11T12:43:49.145Z,19.17
2017-08-11T12:46:16.773Z,19.87
2017-08-11T12:48:44.505Z,19.13
2017-08-11T12:51:12.198Z,18.90
2017-08-11T12:53:39.789Z,20.00
2017-08-11T12:56:07.425Z,19.37
2017-08-11T12:58:35.165Z,18.40
2017-08-11T13:01:02.765Z,18.67
2017-08-11T13:03:30.379Z,18.10
2017-08-11T13:05:58.006Z,19.93
2017-08-11T13:08:25.720Z,18.43
2017-08-11T13:10:53.414Z,20.03
2017-08-11T13:13:21.072Z,19.43
2017-08-11T13:15:48.736Z,18.77
2017-08-11T13:18:16.364Z,18.37
2017-08-11T13:20:45.562Z,18.63
2017-08-11T13:23:13.172Z,17.73
2017-08-11T13:25:44.869Z,19.73
2017-08-11T13:28:13.469Z,19.10
2017-08-11T13:30:41.170Z,18.23
2017-08-11T13:33:09.079Z,18.73
2017-08-11T13:35:36.669Z,19.10
2017-08-11T13:38:04.450Z,18.70
2017-08-11T13:40:32.068Z,17.23
2017-08-11T13:42:59.797Z,17.70
2017-08-11T13:45:27.614Z,17.90
2017-08-11T13:47:55.227Z,17.40
2017-08-11T13:50:23.224Z,16.07
2017-08-11T13:52:50.824Z,15.07
2017-08-11T13:55:18.432Z,12.43
2017-08-11T13:57:46.249Z,14.03
2017-08-11T14:00:13.890Z,13.47
2017-08-11T14:02:41.659Z,13.90
2017-08-11T14:05:09.263Z,14.60
2017-08-11T14:07:37.361Z,14.93
2017-08-11T14:10:04.978Z,14.00
2017-08-11T14:12:32.629Z,12.97
2017-08-11T14:15:01.353Z,13.63
2017-08-11T14:17:29.098Z,13.13
2017-08-11T14:19:57.038Z,13.77
2017-08-11T14:22:24.644Z,14.07
2017-08-11T14:24:52.248Z,14.97
2017-08-11T14:27:19.902Z,13.80
2017-08-11T14:29:47.506Z,13.80
2017-08-11T14:32:15.144Z,14.90
2017-08-11T14:34:42.759Z,14.97
2017-08-11T14:37:10.702Z,14.13
2017-08-11T14:39:38.302Z,14.20
2017-08-11T14:42:05.894Z,14.07
2017-08-11T14:44:33.668Z,15.70
2017-08-11T14:47:01.265Z,14.17
2017-08-11T14:49:28.918Z,14.30
2017-08-11T14:51:56.596Z,14.80
2017-08-11T14:54:24.513Z,14.63
2017-08-11T14:56:52.241Z,14.60
2017-08-11T14:59:19.868Z,14.47
2017-08-11T15:01:47.511Z,14.50
2017-08-11T15:04:15.137Z,13.57
2017-08-11T15:06:43.111Z,14.03
2017-08-11T15:09:10.810Z,13.23
2017-08-11T15:11:38.421Z,13.03
2017-08-11T15:14:06.075Z,13.30
2017-08-11T15:16:33.695Z,13.87
2017-08-11T15:19:01.310Z,13.80
2017-08-11T15:21:29.012Z,13.20
2017-08-11T15:23:56.957Z,12.60
2017-08-11T15:26:24.599Z,14.40
2017-08-11T15:28:52.249Z,12.97
2017-08-11T15:31:19.943Z,13.80
2017-08-11T15:33:47.564Z,13.27
2017-08-11T15:36:15.201Z,13.10
2017-08-11T15:38:42.816Z,12.80
2017-08-11T15:41:10.790Z,12.80
2017-08-11T15:43:38.426Z,12.50
2017-08-11T15:46:06.034Z,9.73
2017-08-11T15:48:33.644Z,9.53
2017-08-11T15:51:01.247Z,9.20
2017-08-11T15:53:28.934Z,8.60
2017-08-11T15:55:56.535Z,7.90
2017-08-11T15:58:26.018Z,8.10
2017-08-11T16:00:53.800Z,7.30
2017-08-11T16:03:21.389Z,6.70
2017-08-11T16:05:49.187Z,6.80
2017-08-11T16:08:16.831Z,7.10
2017-08-11T16:10:44.929Z,6.40
2017-08-11T16:13:12.550Z,7.07
2017-08-11T16:15:41.197Z,7.23
2017-08-11T16:18:08.811Z,7.40
2017-08-11T16:20:41.514Z,7.43
2017-08-11T16:23:10.501Z,6.77
2017-08-11T16:25:41.543Z,7.13
2017-08-11T16:28:09.474Z,7.10
2017-08-11T16:30:37.082Z,7.20
2017-08-11T16:33:04.672Z,6.60
2017-08-11T16:35:32.310Z,6.60
2017-08-11T16:37:59.898Z,6.37
2017-08-11T16:40:27.907Z,6.33
2017-08-11T16:42:55.501Z,6.77
2017-08-11T16:45:23.597Z,6.20
2017-08-11T16:47:52.288Z,6.20
2017-08-11T16:50:22.270Z,5.60
2017-08-11T16:52:49.891Z,5.67
2017-08-11T16:55:18.100Z,6.10
2017-08-11T16:57:49.651Z,5.70
2017-08-11T17:00:17.407Z,5.40
2017-08-11T17:02:46.159Z,5.90
2017-08-11T17:05:16.241Z,6.10
2017-08-11T17:07:43.891Z,5.53
2017-08-11T17:10:11.513Z,5.73
2017-08-11T17:12:39.123Z,5.37
2017-08-11T17:15:07.314Z,5.20
2017-08-11T17:17:35.816Z,5.33
2017-08-11T17:20:03.433Z,5.10
2017-08-11T17:22:31.082Z,4.60
2017-08-11T17:24:59.970Z,5.13
2017-08-11T17:27:29.031Z,5.80
2017-08-11T17:29:57.321Z,5.60
2017-08-11T17:32:25.292Z,5.67
2017-08-11T17:34:53.812Z,4.43
2017-08-11T17:37:21.403Z,4.10
2017-08-11T17:39:49.025Z,4.27
2017-08-11T17:42:16.635Z,3.90
2017-08-11T17:44:44.289Z,3.93
2017-08-11T17:47:11.920Z,4.07
2017-08-11T17:49:39.525Z,3.57
2017-08-11T17:52:07.183Z,3.10
2017-08-11T17:54:34.797Z,2.77
2017-08-11T17:57:02.740Z,3.00
2017-08-11T17:59:30.469Z,3.20
2017-08-11T18:01:58.115Z,2.97
2017-08-11T18:04:25.745Z,2.90
2017-08-11T18:06:53.350Z,3.20
2017-08-11T18:09:21.154Z,3.17
2017-08-11T18:11:48.786Z,2.47
2017-08-11T18:14:16.837Z,3.43
2017-08-11T18:16:44.508Z,2.57
2017-08-11T18:19:12.116Z,2.90
2017-08-11T18:21:39.876Z,3.03
2017-08-11T18:24:07.486Z,2.97
2017-08-11T18:26:36.339Z,3.10
2017-08-11T18:29:03.951Z,2.60
2017-08-11T18:31:31.670Z,2.30
2017-08-11T18:34:00.902Z,2.93
2017-08-11T18:36:28.530Z,2.57
2017-08-11T18:38:56.160Z,2.70
2017-08-11T18:41:23.901Z,2.80
2017-08-11T18:43:51.516Z,2.83
2017-08-11T18:46:19.149Z,2.50
2017-08-11T18:48:47.054Z,2.70
2017-08-11T18:51:14.645Z,3.00
2017-08-11T18:53:42.472Z,2.70
2017-08-11T18:56:10.137Z,2.40
2017-08-11T18:58:39.468Z,2.30
2017-08-11T19:01:07.078Z,2.00
2017-08-11T19:03:34.766Z,2.20
2017-08-11T19:06:02.411Z,2.07
2017-08-11T19:08:30.033Z,1.50
2017-08-11T19:10:57.686Z,1.90
2017-08-11T19:13:25.313Z,1.80
2017-08-11T19:15:53.183Z,1.70
2017-08-11T19:18:21.363Z,1.60
2017-08-11T19:20:49.007Z,1.93
2017-08-11T19:23:16.632Z,1.97
2017-08-11T19:25:45.789Z,1.90
2017-08-11T19:28:13.448Z,2.10
2017-08-11T19:30:42.337Z,1.93
2017-08-11T19:33:10.163Z,1.97
2017-08-11T19:35:37.777Z,1.77
2017-08-11T19:38:07.170Z,1.90
2017-08-11T19:40:34.793Z,1.90
2017-08-11T19:43:02.997Z,2.13
2017-08-11T19:45:31.956Z,1.70
2017-08-11T19:48:01.171Z,2.20
2017-08-11T19:50:30.165Z,2.40
2017-08-11T19:52:57.807Z,1.90
2017-08-11T19:55:25.407Z,1.83
2017-08-11T19:57:53.028Z,2.10
2017-08-11T20:00:20.640Z,2.20
2017-08-11T20:02:50.153Z,2.10
2017-08-11T20:05:17.807Z,2.30
2017-08-11T20:07:46.160Z,2.07
2017-08-11T20:10:14.740Z,2.27
2017-08-11T20:12:42.355Z,2.50
2017-08-11T20:15:09.978Z,2.30
2017-08-11T20:17:37.574Z,2.30
2017-08-11T20:20:05.196Z,2.00
2017-08-11T20:22:32.848Z,3.10
2017-08-11T20:25:00.422Z,2.73
2017-08-11T20:27:28.179Z,2.30
2017-08-11T20:29:57.394Z,2.50
2017-08-11T20:32:25.028Z,2.80
2017-08-11T20:34:52.620Z,3.03
2017-08-11T20:37:23.073Z,2.90
2017-08-11T20:39:53.329Z,3.10
2017-08-11T20:42:20.971Z,3.07
2017-08-11T20:44:48.568Z,3.17
2017-08-11T20:47:16.217Z,3.03
2017-08-11T20:49:43.900Z,3.10
2017-08-11T20:52:11.941Z,3.20
2017-08-11T20:54:39.634Z,3.53
2017-08-11T20:57:07.237Z,3.33
2017-08-11T20:59:34.851Z,3.43
2017-08-11T21:02:02.454Z,3.80
2017-08-11T21:04:30.079Z,3.80
2017-08-11T21:06:58.171Z,3.80
2017-08-11T21:09:28.887Z,3.80
2017-08-11T21:11:56.536Z,3.97
2017-08-11T21:14:24.180Z,3.60
2017-08-11T21:16:52.330Z,4.60
2017-08-11T21:19:19.920Z,3.90
2017-08-11T21:21:47.633Z,4.07
2017-08-11T21:24:15.269Z,4.10
2017-08-11T21:26:42.875Z,4.50
2017-08-11T21:29:10.595Z,4.60
2017-08-11T21:31:38.374Z,4.90
2017-08-11T21:34:06.392Z,5.23
2017-08-11T21:36:33.979Z,5.20
2017-08-11T21:39:01.652Z,5.53
2017-08-11T21:41:29.271Z,5.33
2017-08-11T21:43:56.976Z,5.70
2017-08-11T21:46:24.594Z,5.53
2017-08-11T21:48:52.187Z,5.33
2017-08-11T21:51:20.162Z,5.30
2017-08-11T21:53:48.542Z,5.50
2017-08-11T21:56:16.148Z,6.03
2017-08-11T21:58:43.801Z,6.50
2017-08-11T22:01:11.430Z,6.37
2017-08-11T22:03:39.043Z,6.57
2017-08-11T22:06:06.654Z,6.07
2017-08-11T22:08:34.588Z,6.80
2017-08-11T22:11:02.203Z,6.80
2017-08-11T22:13:29.950Z,7.37
2017-08-11T22:15:57.552Z,6.50
2017-08-11T22:18:25.257Z,7.40
2017-08-11T22:20:52.941Z,7.20
2017-08-11T22:23:20.696Z,7.50
2017-08-11T22:25:48.338Z,8.07
2017-08-11T22:28:15.923Z,8.27
2017-08-11T22:30:43.556Z,8.87
2017-08-11T22:33:11.154Z,8.00
2017-08-11T22:35:38.753Z,8.17
2017-08-11T22:38:06.400Z,7.33
2017-08-11T22:40:34.132Z,8.53
2017-08-11T22:43:01.784Z,8.73
2017-08-11T22:45:29.376Z,7.80
2017-08-11T22:47:56.988Z,9.80
2017-08-11T22:50:24.584Z,10.07
2017-08-11T22:52:52.239Z,8.57
2017-08-11T22:55:19.829Z,9.13
2017-08-11T22:57:47.438Z,9.00
2017-08-11T23:00:15.083Z,9.97
2017-08-11T23:02:43.057Z,8.83
2017-08-11T23:05:10.659Z,9.17
2017-08-11T23:07:38.267Z,9.37
2017-08-11T23:10:05.909Z,9.73
2017-08-11T23:12:33.513Z,8.90
2017-08-11T23:15:01.157Z,9.53
2017-08-11T23:17:28.773Z,8.90
2017-08-11T23:19:56.602Z,9.37
2017-08-11T23:22:24.195Z,9.50
2017-08-11T23:24:51.789Z,9.30
2017-08-11T23:27:19.368Z,8.80
2017-08-11T23:29:47.267Z,9.30
2017-08-11T23:32:14.874Z,8.07
2017-08-11T23:34:42.450Z,9.50
2017-08-11T23:37:10.640Z,8.67
2017-08-11T23:39:38.347Z,9.20
2017-08-11T23:42:05.967Z,9.43
2017-08-11T23:44:33.586Z,8.03
2017-08-11T23:47:01.322Z,8.53
2017-08-11T23:49:28.916Z,8.77
2017-08-11T23:51:56.535Z,7.73
2017-08-11T23:54:24.208Z,8.27
2017-08-11T23:56:51.825Z,7.47
2017-08-11T23:59:19.524Z,7.93
